createdAt,value
2023-02-17T00:02:05.642Z,25.96
2023-02-17T00:04:35.879Z,25.93
2023-02-17T00:07:05.917Z,26.06
2023-02-17T00:09:35.553Z,26.15
2023-02-17T00:12:05.418Z,26.16
2023-02-17T00:14:35.648Z,26.01
2023-02-17T00:17:05.509Z,26.06
2023-02-17T00:19:35.414Z,26.16
2023-02-17T00:22:05.475Z,26.12
2023-02-17T00:24:35.599Z,26.08
2023-02-17T00:27:06.177Z,25.89
2023-02-17T00:29:36.421Z,25.85
2023-02-17T00:32:06.578Z,25.85
2023-02-17T00:34:36.764Z,25.89
2023-02-17T00:37:06.815Z,25.84
2023-02-17T00:39:36.963Z,25.84
2023-02-17T00:42:07.543Z,25.86
2023-02-17T00:44:37.456Z,25.78
2023-02-17T00:47:07.557Z,25.84
2023-02-17T00:49:37.129Z,25.82
2023-02-17T00:52:07.472Z,25.85
2023-02-17T00:54:37.605Z,25.79
2023-02-17T00:57:07.292Z,25.79
2023-02-17T00:59:37.067Z,25.78
2023-02-17T01:02:10.784Z,25.78
2023-02-17T01:04:40.929Z,25.78
2023-02-17T01:07:11.076Z,25.84
2023-02-17T01:09:42.341Z,25.78
2023-02-17T01:12:13.604Z,25.77
2023-02-17T01:14:43.681Z,25.72
2023-02-17T01:17:13.702Z,25.71
2023-02-17T01:19:43.828Z,25.75
2023-02-17T01:22:13.831Z,25.69
2023-02-17T01:24:43.774Z,25.65
2023-02-17T01:27:13.673Z,25.58
2023-02-17T01:29:45.880Z,25.54
2023-02-17T01:32:16.058Z,25.45
2023-02-17T01:34:46.205Z,25.42
2023-02-17T01:37:16.484Z,25.41
2023-02-17T01:39:46.494Z,25.44
2023-02-17T01:42:21.284Z,25.44
2023-02-17T01:45:18.971Z,25.45
2023-02-17T01:48:26.850Z,25.42
2023-02-17T01:51:04.620Z,25.50
2023-02-17T01:53:50.238Z,25.44
2023-02-17T01:56:20.655Z,25.44
2023-02-17T01:58:57.073Z,25.27
2023-02-17T02:01:28.146Z,25.23
2023-02-17T02:04:00.079Z,25.37
2023-02-17T02:06:31.351Z,25.35
2023-02-17T02:09:14.646Z,25.37
2023-02-17T02:11:44.863Z,25.26
2023-02-17T02:14:15.246Z,25.14
2023-02-17T02:16:52.371Z,25.06
2023-02-17T02:19:43.999Z,25.11
2023-02-17T02:22:16.570Z,25.03
2023-02-17T02:25:00.284Z,25.04
2023-02-17T02:28:23.291Z,25.10
2023-02-17T02:31:05.053Z,25.14
2023-02-17T02:33:47.673Z,25.11
2023-02-17T02:36:27.418Z,24.91
2023-02-17T02:39:11.603Z,25.04
2023-02-17T02:41:46.779Z,25.09
2023-02-17T02:44:20.768Z,25.13
2023-02-17T02:47:09.087Z,25.19
2023-02-17T02:49:41.343Z,25.16
2023-02-17T02:52:17.162Z,25.10
2023-02-17T02:55:06.250Z,25.04
2023-02-17T02:58:00.623Z,25.04
2023-02-17T03:00:55.236Z,25.09
2023-02-17T03:03:59.374Z,25.09
2023-02-17T03:06:39.435Z,25.11
2023-02-17T03:09:14.399Z,25.09
2023-02-17T03:11:44.751Z,25.03
2023-02-17T03:14:18.738Z,25.06
2023-02-17T03:16:49.766Z,25.06
2023-02-17T03:19:23.658Z,25.09
2023-02-17T03:22:30.441Z,25.07
2023-02-17T03:25:02.413Z,25.00
2023-02-17T03:27:32.593Z,25.00
2023-02-17T03:30:02.762Z,24.99
2023-02-17T03:32:32.346Z,25.03
2023-02-17T03:35:02.207Z,25.09
2023-02-17T03:37:32.558Z,25.13
2023-02-17T03:40:02.099Z,25.06
2023-02-17T03:42:32.137Z,24.83
2023-02-17T03:45:01.792Z,24.63
2023-02-17T03:47:31.601Z,24.55
2023-02-17T03:50:01.505Z,24.53
2023-02-17T03:52:31.047Z,24.49
2023-02-17T03:55:01.209Z,24.43
2023-02-17T03:57:33.021Z,24.43
2023-02-17T04:00:03.129Z,24.42
2023-02-17T04:02:44.174Z,24.45
2023-02-17T04:05:14.413Z,24.40
2023-02-17T04:07:44.000Z,24.33
2023-02-17T04:10:14.048Z,24.28
2023-02-17T04:12:43.845Z,24.17
2023-02-17T04:15:13.807Z,24.05
2023-02-17T04:17:43.637Z,23.93
2023-02-17T04:20:13.992Z,23.84
2023-02-17T04:22:44.188Z,23.74
2023-02-17T04:25:14.494Z,23.74
2023-02-17T04:27:44.551Z,23.68
2023-02-17T04:30:14.977Z,23.57
2023-02-17T04:32:45.312Z,23.57
2023-02-17T04:35:15.583Z,23.58
2023-02-17T04:37:45.646Z,23.51
2023-02-17T04:40:15.857Z,23.49
2023-02-17T04:42:46.426Z,23.47
2023-02-17T04:45:16.666Z,23.49
2023-02-17T04:47:46.756Z,23.40
2023-02-17T04:50:16.708Z,23.45
2023-02-17T04:52:46.425Z,23.40
2023-02-17T04:55:16.786Z,23.46
2023-02-17T04:57:47.200Z,23.40
2023-02-17T05:00:17.747Z,23.40
2023-02-17T05:02:48.124Z,23.42
2023-02-17T05:05:20.189Z,23.47
2023-02-17T05:07:50.908Z,23.42
2023-02-17T05:10:24.099Z,23.34
2023-02-17T05:12:54.615Z,23.40
2023-02-17T05:15:25.041Z,23.51
2023-02-17T05:17:55.399Z,23.58
2023-02-17T05:20:25.874Z,23.61
2023-02-17T05:22:56.333Z,23.33
2023-02-17T05:25:26.727Z,23.24
2023-02-17T05:27:57.205Z,23.12
2023-02-17T05:30:27.813Z,23.23
2023-02-17T05:32:58.229Z,23.39
2023-02-17T05:35:28.890Z,23.50
2023-02-17T05:37:59.242Z,23.50
2023-02-17T05:40:29.574Z,23.60
2023-02-17T05:42:59.929Z,23.60
2023-02-17T05:45:30.374Z,23.46
2023-02-17T05:47:59.970Z,23.33
2023-02-17T05:50:30.297Z,23.20
2023-02-17T05:53:05.802Z,23.31
2023-02-17T05:55:36.193Z,23.34
2023-02-17T05:58:06.855Z,23.36
2023-02-17T06:00:37.316Z,23.37
2023-02-17T06:03:07.930Z,23.27
2023-02-17T06:05:38.621Z,23.22
2023-02-17T06:08:09.807Z,23.16
2023-02-17T06:10:40.170Z,23.24
2023-02-17T06:13:10.908Z,23.33
2023-02-17T06:15:41.316Z,23.37
2023-02-17T06:18:11.969Z,23.29
2023-02-17T06:20:42.669Z,23.22
2023-02-17T06:23:13.034Z,23.20
2023-02-17T06:25:43.684Z,23.30
2023-02-17T06:28:14.170Z,23.40
2023-02-17T06:30:44.825Z,23.40
2023-02-17T06:33:15.238Z,23.36
2023-02-17T06:35:51.083Z,23.30
2023-02-17T06:38:21.628Z,23.33
2023-02-17T06:40:51.991Z,23.39
2023-02-17T06:43:22.686Z,23.30
2023-02-17T06:45:53.245Z,23.20
2023-02-17T06:48:23.708Z,23.26
2023-02-17T06:50:53.566Z,23.15
2023-02-17T06:53:23.602Z,23.22
2023-02-17T06:55:53.982Z,23.24
2023-02-17T06:58:24.654Z,23.22
2023-02-17T07:00:55.027Z,23.23
2023-02-17T07:03:25.555Z,23.16
2023-02-17T07:06:02.407Z,23.12
2023-02-17T07:08:34.119Z,23.08
2023-02-17T07:11:12.599Z,23.02
2023-02-17T07:13:43.292Z,22.99
2023-02-17T07:16:15.752Z,22.96
2023-02-17T07:18:46.343Z,22.96
2023-02-17T07:21:16.890Z,22.91
2023-02-17T07:23:47.309Z,22.89
2023-02-17T07:26:17.805Z,22.89
2023-02-17T07:28:48.275Z,22.86
2023-02-17T07:31:19.638Z,22.88
2023-02-17T07:33:51.587Z,22.89
2023-02-17T07:36:22.042Z,22.85
2023-02-17T07:38:52.534Z,22.84
2023-02-17T07:41:25.991Z,22.84
2023-02-17T07:43:59.085Z,22.89
2023-02-17T07:46:29.994Z,22.92
2023-02-17T07:49:00.906Z,22.96
2023-02-17T07:51:31.302Z,23.08
2023-02-17T07:54:03.998Z,23.05
2023-02-17T07:56:35.300Z,23.05
2023-02-17T07:59:05.917Z,23.13
2023-02-17T08:01:36.462Z,23.20
2023-02-17T08:04:07.382Z,23.20
2023-02-17T08:06:41.494Z,22.98
2023-02-17T08:09:31.729Z,22.88
2023-02-17T08:12:21.050Z,22.78
2023-02-17T08:14:51.409Z,22.69
2023-02-17T08:17:21.848Z,22.62
2023-02-17T08:19:52.280Z,22.59
2023-02-17T08:22:22.794Z,22.47
2023-02-17T08:24:53.324Z,22.44
2023-02-17T08:27:23.910Z,22.45
2023-02-17T08:29:55.820Z,22.43
2023-02-17T08:32:26.632Z,22.25
2023-02-17T08:34:59.842Z,22.24
2023-02-17T08:37:31.555Z,22.25
2023-02-17T08:40:02.276Z,22.22
2023-02-17T08:42:34.498Z,22.08
2023-02-17T08:45:06.775Z,21.97
2023-02-17T08:47:38.131Z,21.98
2023-02-17T08:50:10.725Z,21.94
2023-02-17T08:52:41.163Z,21.96
2023-02-17T08:55:12.385Z,21.94
2023-02-17T08:57:43.013Z,21.92
2023-02-17T09:00:13.983Z,21.80
2023-02-17T09:02:47.671Z,21.72
2023-02-17T09:05:18.143Z,21.70
2023-02-17T09:07:48.551Z,21.60
2023-02-17T09:10:19.061Z,21.45
2023-02-17T09:12:49.565Z,21.46
2023-02-17T09:15:19.260Z,21.52
2023-02-17T09:17:49.595Z,21.59
2023-02-17T09:20:25.073Z,21.62
2023-02-17T09:22:55.861Z,21.39
2023-02-17T09:25:25.588Z,21.41
2023-02-17T09:27:55.341Z,21.49
2023-02-17T09:30:25.786Z,21.46
2023-02-17T09:32:55.932Z,21.53
2023-02-17T09:35:26.614Z,21.60
2023-02-17T09:37:56.784Z,21.55
2023-02-17T09:40:41.233Z,21.55
2023-02-17T09:43:25.113Z,21.57
2023-02-17T09:46:02.133Z,21.43
2023-02-17T09:48:34.074Z,21.29
2023-02-17T09:51:31.995Z,21.25
2023-02-17T09:54:25.474Z,21.14
2023-02-17T09:56:58.303Z,21.09
2023-02-17T09:59:46.441Z,21.11
2023-02-17T10:02:27.724Z,21.08
2023-02-17T10:05:02.265Z,21.11
2023-02-17T10:07:38.588Z,21.14
2023-02-17T10:10:17.926Z,21.01
2023-02-17T10:12:53.028Z,20.91
2023-02-17T10:15:27.923Z,21.01
2023-02-17T10:18:18.731Z,21.12
2023-02-17T10:20:55.043Z,21.14
2023-02-17T10:23:28.043Z,21.22
2023-02-17T10:26:01.060Z,21.22
2023-02-17T10:29:01.156Z,21.34
2023-02-17T10:31:47.884Z,21.26
2023-02-17T10:34:44.394Z,21.19
2023-02-17T10:37:23.121Z,21.36
2023-02-17T10:39:56.477Z,21.41
2023-02-17T10:42:37.881Z,21.41
2023-02-17T10:45:23.183Z,21.43
2023-02-17T10:48:17.848Z,21.42
2023-02-17T10:50:49.414Z,21.52
2023-02-17T10:53:24.002Z,21.56
2023-02-17T10:56:03.727Z,21.47
2023-02-17T10:58:56.888Z,21.50
2023-02-17T11:01:29.276Z,21.47
2023-02-17T11:04:13.385Z,21.49
2023-02-17T11:06:58.975Z,21.50
2023-02-17T11:09:33.900Z,21.50
2023-02-17T11:12:16.030Z,21.59
2023-02-17T11:14:48.802Z,21.60
2023-02-17T11:17:32.021Z,21.63
2023-02-17T11:20:07.349Z,21.72
2023-02-17T11:22:43.060Z,21.72
2023-02-17T11:25:34.190Z,21.75
2023-02-17T11:28:07.621Z,21.72
2023-02-17T11:30:37.848Z,21.66
2023-02-17T11:33:17.496Z,21.60
2023-02-17T11:35:56.131Z,21.67
2023-02-17T11:38:44.692Z,21.59
2023-02-17T11:41:15.623Z,21.49
2023-02-17T11:44:02.687Z,21.47
2023-02-17T11:46:40.259Z,21.49
2023-02-17T11:49:48.772Z,21.56
2023-02-17T11:52:37.525Z,21.80
2023-02-17T11:55:19.790Z,22.01
2023-02-17T11:58:26.382Z,22.13
2023-02-17T12:01:32.144Z,22.08
2023-02-17T12:04:22.570Z,22.14
2023-02-17T12:07:21.258Z,22.08
2023-02-17T12:10:37.357Z,21.94
2023-02-17T12:13:17.750Z,21.83
2023-02-17T12:16:11.620Z,21.89
2023-02-17T12:18:53.711Z,21.82
2023-02-17T12:21:26.522Z,22.00
2023-02-17T12:24:20.303Z,22.03
2023-02-17T12:27:00.742Z,21.96
2023-02-17T12:29:42.582Z,21.86
2023-02-17T12:32:27.496Z,21.93
2023-02-17T12:35:23.325Z,22.11
2023-02-17T12:38:02.410Z,22.20
2023-02-17T12:40:38.500Z,22.18
2023-02-17T12:43:32.076Z,22.20
2023-02-17T12:46:07.319Z,22.52
2023-02-17T12:49:07.496Z,22.78
2023-02-17T12:51:46.057Z,22.89
2023-02-17T12:54:24.842Z,22.88
2023-02-17T12:57:02.589Z,22.92
2023-02-17T12:59:32.733Z,22.61
2023-02-17T13:02:06.850Z,22.72
2023-02-17T13:04:38.148Z,22.86
2023-02-17T13:07:21.323Z,22.62
2023-02-17T13:09:52.918Z,22.58
2023-02-17T13:12:25.877Z,22.81
2023-02-17T13:15:03.426Z,22.92
2023-02-17T13:17:40.842Z,23.29
2023-02-17T13:20:13.774Z,23.29
2023-02-17T13:22:46.074Z,23.13
2023-02-17T13:25:33.256Z,22.94
2023-02-17T13:28:17.185Z,22.86
2023-02-17T13:30:49.451Z,22.88
2023-02-17T13:33:22.535Z,22.75
2023-02-17T13:35:52.804Z,22.68
2023-02-17T13:38:33.343Z,22.61
2023-02-17T13:41:07.606Z,22.98
2023-02-17T13:43:44.881Z,23.26
2023-02-17T13:46:25.504Z,23.45
2023-02-17T13:49:05.597Z,23.49
2023-02-17T13:51:36.625Z,23.20
2023-02-17T13:54:09.773Z,23.20
2023-02-17T13:56:40.919Z,23.39
2023-02-17T13:59:19.146Z,23.29
2023-02-17T14:01:49.580Z,23.27
2023-02-17T14:04:39.882Z,23.57
2023-02-17T14:07:13.433Z,23.61
2023-02-17T14:17:05.718Z,24.15
2023-02-17T14:19:49.953Z,24.26
2023-02-17T14:22:31.507Z,24.00
2023-02-17T14:25:01.615Z,24.02
2023-02-17T14:27:41.946Z,24.08
2023-02-17T14:30:38.912Z,24.15
2023-02-17T14:33:18.307Z,24.25
2023-02-17T14:36:08.575Z,24.28
2023-02-17T14:38:42.789Z,24.49
2023-02-17T14:41:12.908Z,24.45
2023-02-17T14:43:42.546Z,24.53
2023-02-17T14:46:12.391Z,24.70
2023-02-17T14:48:42.102Z,24.84
2023-02-17T14:51:20.833Z,24.86
2023-02-17T14:53:52.367Z,24.75
2023-02-17T14:56:31.396Z,24.72
2023-02-17T14:59:01.640Z,24.60
2023-02-17T15:01:32.215Z,24.75
2023-02-17T15:04:04.011Z,24.93
2023-02-17T15:06:44.823Z,24.84
2023-02-17T15:09:18.280Z,24.51
2023-02-17T15:11:50.390Z,24.26
2023-02-17T15:14:22.213Z,24.29
2023-02-17T15:16:53.484Z,24.40
2023-02-17T15:19:23.600Z,24.66
2023-02-17T15:21:53.442Z,24.99
2023-02-17T15:24:30.525Z,25.10
2023-02-17T15:27:04.476Z,25.38
2023-02-17T15:29:34.870Z,25.38
2023-02-17T15:32:12.382Z,25.31
2023-02-17T15:34:42.484Z,24.97
2023-02-17T15:37:13.031Z,24.80
2023-02-17T15:39:43.141Z,24.59
2023-02-17T15:42:16.016Z,24.69
2023-02-17T15:44:51.710Z,24.90
2023-02-17T15:47:23.031Z,25.07
2023-02-17T15:49:53.246Z,25.14
2023-02-17T15:52:23.394Z,25.20
2023-02-17T15:54:52.985Z,25.10
2023-02-17T15:57:26.026Z,25.13
2023-02-17T15:59:56.873Z,25.28
2023-02-17T16:02:27.480Z,25.40
2023-02-17T16:04:57.490Z,25.38
2023-02-17T16:07:27.574Z,25.38
2023-02-17T16:09:57.224Z,25.34
2023-02-17T16:12:34.528Z,25.26
2023-02-17T16:15:06.105Z,25.34
2023-02-17T16:17:37.128Z,25.54
2023-02-17T16:20:14.625Z,25.64
2023-02-17T16:22:46.357Z,25.62
2023-02-17T16:25:17.987Z,25.35
2023-02-17T16:27:50.782Z,24.96
2023-02-17T16:30:30.915Z,24.86
2023-02-17T16:33:01.604Z,24.83
2023-02-17T16:35:33.623Z,25.16
2023-02-17T16:38:23.704Z,25.45
2023-02-17T16:40:54.931Z,25.99
2023-02-17T16:43:29.029Z,25.92
2023-02-17T16:46:02.740Z,25.64
2023-02-17T16:48:35.488Z,25.38
2023-02-17T16:51:05.715Z,25.41
2023-02-17T16:53:35.822Z,25.52
2023-02-17T16:56:15.530Z,25.75
2023-02-17T16:58:46.040Z,25.74
2023-02-17T17:01:16.739Z,25.75
2023-02-17T17:03:47.066Z,25.89
2023-02-17T17:06:24.961Z,25.89
2023-02-17T17:08:56.015Z,25.48
2023-02-17T17:11:27.560Z,25.26
2023-02-17T17:13:57.808Z,25.14
2023-02-17T17:16:34.565Z,25.04
2023-02-17T17:19:05.351Z,24.94
2023-02-17T17:21:35.830Z,25.02
2023-02-17T17:24:06.327Z,25.21
2023-02-17T17:26:42.484Z,25.40
2023-02-17T17:29:18.012Z,25.23
2023-02-17T17:31:48.491Z,25.17
2023-02-17T17:34:18.638Z,25.10
2023-02-17T17:36:49.849Z,25.38
2023-02-17T17:39:23.429Z,25.35
2023-02-17T17:41:53.750Z,25.52
2023-02-17T17:44:23.946Z,25.77
2023-02-17T17:46:54.193Z,26.23
2023-02-17T17:49:24.500Z,25.52
2023-02-17T17:51:54.629Z,25.45
2023-02-17T17:54:24.456Z,25.54
2023-02-17T17:56:56.079Z,25.92
2023-02-17T17:59:27.270Z,25.79
2023-02-17T18:01:57.409Z,25.42
2023-02-17T18:04:27.050Z,24.89
2023-02-17T18:06:59.247Z,24.56
2023-02-17T18:09:32.722Z,24.55
2023-02-17T18:12:07.306Z,24.51
2023-02-17T18:14:39.272Z,24.52
2023-02-17T18:17:11.828Z,24.91
2023-02-17T18:19:42.937Z,25.04
2023-02-17T18:22:13.330Z,25.02
2023-02-17T18:24:43.411Z,24.90
2023-02-17T18:27:13.582Z,24.45
2023-02-17T18:29:44.758Z,24.55
2023-02-17T18:32:15.539Z,24.53
2023-02-17T18:34:45.720Z,24.48
2023-02-17T18:37:16.131Z,24.28
2023-02-17T18:39:46.448Z,24.08
2023-02-17T18:42:16.699Z,24.04
2023-02-17T18:44:46.850Z,23.93
2023-02-17T18:47:16.785Z,23.91
2023-02-17T18:49:46.755Z,23.60
2023-02-17T18:52:16.817Z,23.33
2023-02-17T18:54:47.389Z,23.50
2023-02-17T18:57:18.080Z,23.39
2023-02-17T18:59:48.327Z,23.45
2023-02-17T19:02:18.737Z,23.33
2023-02-17T19:04:49.143Z,23.31
2023-02-17T19:07:19.349Z,23.23
2023-02-17T19:09:52.808Z,23.16
2023-02-17T19:12:23.056Z,22.96
2023-02-17T19:14:56.824Z,22.82
2023-02-17T19:17:27.567Z,22.95
2023-02-17T19:19:57.807Z,23.08
2023-02-17T19:22:27.969Z,23.15
2023-02-17T19:25:04.765Z,22.91
2023-02-17T19:27:35.644Z,22.92
2023-02-17T19:30:05.977Z,22.99
2023-02-17T19:32:36.110Z,23.43
2023-02-17T19:35:06.922Z,23.87
2023-02-17T19:37:37.237Z,23.47
2023-02-17T19:40:07.951Z,23.34
2023-02-17T19:42:38.781Z,23.63
2023-02-17T19:45:09.017Z,23.74
2023-02-17T19:47:39.189Z,23.49
2023-02-17T19:50:09.094Z,23.36
2023-02-17T19:52:39.636Z,23.20
2023-02-17T19:55:11.232Z,23.06
2023-02-17T19:57:41.433Z,22.89
2023-02-17T20:00:11.518Z,22.96
2023-02-17T20:02:41.690Z,22.92
2023-02-17T20:05:11.877Z,22.85
2023-02-17T20:07:42.191Z,22.68
2023-02-17T20:10:13.984Z,22.48
2023-02-17T20:12:44.257Z,22.47
2023-02-17T20:15:14.457Z,22.41
2023-02-17T20:17:44.660Z,22.47
2023-02-17T20:20:14.323Z,22.47
2023-02-17T20:22:44.067Z,22.51
2023-02-17T20:25:14.340Z,22.43
2023-02-17T20:27:43.928Z,22.73
2023-02-17T20:30:14.827Z,22.69
2023-02-17T20:32:45.031Z,23.17
2023-02-17T20:35:16.041Z,23.57
2023-02-17T20:37:46.538Z,23.46
2023-02-17T20:40:17.041Z,24.21
2023-02-17T20:42:47.199Z,24.35
2023-02-17T20:45:16.882Z,24.73
2023-02-17T20:47:46.900Z,25.07
2023-02-17T20:50:20.538Z,24.26
2023-02-17T20:52:51.362Z,24.17
2023-02-17T20:55:21.936Z,23.96
2023-02-17T20:57:52.044Z,25.28
2023-02-17T21:00:25.435Z,26.77
2023-02-17T21:02:56.028Z,26.08
2023-02-17T21:05:27.781Z,24.26
2023-02-17T21:07:58.972Z,23.63
2023-02-17T21:10:31.531Z,23.23
2023-02-17T21:13:01.610Z,23.08
2023-02-17T21:15:31.758Z,22.91
2023-02-17T21:18:02.018Z,23.23
2023-02-17T21:20:31.620Z,23.31
2023-02-17T21:23:02.186Z,23.03
2023-02-17T21:25:32.746Z,22.82
2023-02-17T21:28:02.954Z,22.57
2023-02-17T21:30:33.297Z,22.41
2023-02-17T21:33:02.913Z,22.45
2023-02-17T21:35:32.978Z,22.43
2023-02-17T21:38:03.940Z,22.45
2023-02-17T21:40:33.985Z,22.33
2023-02-17T21:43:22.356Z,22.27
2023-02-17T21:45:53.188Z,22.13
2023-02-17T21:48:22.923Z,22.06
2023-02-17T21:50:52.944Z,22.00
2023-02-17T21:53:23.164Z,21.86
2023-02-17T21:55:52.775Z,21.82
2023-02-17T21:58:22.590Z,21.63
2023-02-17T22:00:52.274Z,21.55
2023-02-17T22:03:22.129Z,21.56
2023-02-17T22:05:51.733Z,21.47
2023-02-17T22:08:22.338Z,21.43
2023-02-17T22:10:52.480Z,21.29
2023-02-17T22:13:22.147Z,21.31
2023-02-17T22:15:59.548Z,21.28
2023-02-17T22:18:30.249Z,21.21
2023-02-17T22:21:00.420Z,21.19
2023-02-17T22:23:30.581Z,21.05
2023-02-17T22:26:00.670Z,21.04
2023-02-17T22:28:30.649Z,20.97
2023-02-17T22:31:00.846Z,20.97
2023-02-17T22:33:30.851Z,20.91
2023-02-17T22:36:07.803Z,20.80
2023-02-17T22:38:38.535Z,20.74
2023-02-17T22:41:08.888Z,20.68
2023-02-17T22:43:40.829Z,20.60
2023-02-17T22:46:12.312Z,20.50
2023-02-17T22:48:42.466Z,20.51
2023-02-17T22:51:15.948Z,20.47
2023-02-17T22:53:46.493Z,20.48
2023-02-17T22:56:17.235Z,20.44
2023-02-17T22:58:47.537Z,20.36
2023-02-17T23:01:18.497Z,20.32
2023-02-17T23:03:53.706Z,20.37
2023-02-17T23:06:33.122Z,20.29
2023-02-17T23:09:04.041Z,20.26
2023-02-17T23:11:52.057Z,20.24
2023-02-17T23:14:34.759Z,20.30
2023-02-17T23:17:06.217Z,20.30
2023-02-17T23:19:36.927Z,20.17
2023-02-17T23:22:11.318Z,20.20
2023-02-17T23:24:41.485Z,20.09
2023-02-17T23:27:12.258Z,20.08
2023-02-17T23:29:43.520Z,19.96
2023-02-17T23:32:13.662Z,19.93
2023-02-17T23:34:43.588Z,19.87
2023-02-17T23:37:13.644Z,19.86
2023-02-17T23:39:43.516Z,19.85
2023-02-17T23:42:13.640Z,19.82
2023-02-17T23:44:43.724Z,19.74
2023-02-17T23:47:13.327Z,19.72
2023-02-17T23:49:43.135Z,19.74
2023-02-17T23:52:13.323Z,19.61
2023-02-17T23:54:43.542Z,19.51
2023-02-17T23:57:13.669Z,19.44
2023-02-17T23:59:43.572Z,19.25
